createdAt,value
2018-07-11T00:00:23.276Z,16.50
2018-07-11T00:01:23.301Z,19.10
2018-07-11T00:02:23.330Z,22.10
2018-07-11T00:03:23.342Z,21.80
2018-07-11T00:04:23.363Z,21.60
2018-07-11T00:05:23.381Z,19.40
2018-07-11T00:06:23.409Z,19.90
2018-07-11T00:07:23.419Z,16.10
2018-07-11T00:08:23.451Z,17.40
2018-07-11T00:09:23.474Z,22.00
2018-07-11T00:10:23.482Z,21.10
2018-07-11T00:11:23.508Z,20.80
2018-07-11T00:12:23.528Z,19.20
2018-07-11T00:13:23.551Z,18.20
2018-07-11T00:14:23.567Z,21.20
2018-07-11T00:15:23.594Z,23.50
2018-07-11T00:16:23.615Z,18.40
2018-07-11T00:17:23.628Z,18.30
2018-07-11T00:18:23.658Z,17.90
2018-07-11T00:19:23.670Z,19.70
2018-07-11T00:20:23.691Z,20.10
2018-07-11T00:21:23.708Z,17.80
2018-07-11T00:22:23.736Z,19.00
2018-07-11T00:23:23.758Z,18.90
2018-07-11T00:24:23.778Z,20.70
2018-07-11T00:25:23.804Z,16.70
2018-07-11T00:26:23.812Z,19.00
2018-07-11T00:27:23.837Z,22.60
2018-07-11T00:28:23.857Z,21.50
2018-07-11T00:29:23.882Z,16.00
2018-07-11T00:30:23.908Z,23.40
2018-07-11T00:31:23.919Z,20.00
2018-07-11T00:32:23.940Z,20.80
2018-07-11T00:33:23.957Z,18.70
2018-07-11T00:34:23.988Z,16.40
2018-07-11T00:35:24.000Z,15.80
2018-07-11T00:36:24.022Z,19.70
2018-07-11T00:37:24.159Z,21.30
2018-07-11T00:38:24.061Z,20.10
2018-07-11T00:39:24.074Z,22.00
2018-07-11T00:40:24.103Z,19.40
2018-07-11T00:41:24.130Z,23.70
2018-07-11T00:42:24.139Z,18.70
2018-07-11T00:43:24.165Z,19.30
2018-07-11T00:44:24.195Z,18.50
2018-07-11T00:45:24.208Z,18.30
2018-07-11T00:46:24.226Z,17.90
2018-07-11T00:47:24.250Z,20.10
2018-07-11T00:48:24.260Z,21.60
2018-07-11T00:49:24.286Z,18.90
2018-07-11T00:50:24.313Z,22.70
2018-07-11T00:51:24.328Z,21.60
2018-07-11T00:52:24.349Z,25.60
2018-07-11T00:53:24.362Z,18.90
2018-07-11T00:54:24.390Z,23.00
2018-07-11T00:55:24.404Z,24.30
2018-07-11T00:56:24.434Z,21.70
2018-07-11T00:57:24.461Z,19.90
2018-07-11T00:58:24.481Z,23.70
2018-07-11T00:59:24.494Z,23.40
2018-07-11T01:00:24.514Z,25.80
2018-07-11T01:01:24.539Z,24.50
2018-07-11T01:02:24.550Z,26.60
2018-07-11T01:03:24.575Z,26.40
2018-07-11T01:04:24.586Z,21.00
2018-07-11T01:05:24.613Z,22.80
2018-07-11T01:06:24.646Z,22.50
2018-07-11T01:07:24.657Z,23.80
2018-07-11T01:08:24.679Z,24.40
2018-07-11T01:09:24.707Z,25.00
2018-07-11T01:10:24.717Z,24.10
2018-07-11T01:11:24.733Z,23.40
2018-07-11T01:12:24.772Z,22.20
2018-07-11T01:13:24.785Z,20.80
2018-07-11T01:14:24.800Z,25.70
2018-07-11T01:15:24.825Z,25.20
2018-07-11T01:16:24.834Z,23.70
2018-07-11T01:17:24.863Z,20.60
2018-07-11T01:18:24.876Z,24.50
2018-07-11T01:19:24.904Z,23.00
2018-07-11T01:20:24.933Z,23.10
2018-07-11T01:21:24.945Z,23.90
2018-07-11T01:22:24.964Z,24.20
2018-07-11T01:23:24.979Z,21.80
2018-07-11T01:24:25.010Z,27.00
2018-07-11T01:25:25.024Z,26.10
2018-07-11T01:26:25.064Z,19.00
2018-07-11T01:27:25.079Z,22.70
2018-07-11T01:28:25.087Z,23.10
2018-07-11T01:29:25.114Z,21.90
2018-07-11T01:30:25.129Z,24.50
2018-07-11T01:31:25.157Z,24.90
2018-07-11T01:32:25.165Z,23.50
2018-07-11T01:33:25.191Z,20.40
2018-07-11T01:34:25.215Z,26.30
2018-07-11T01:35:25.228Z,20.50
2018-07-11T01:36:25.260Z,20.00
2018-07-11T01:37:25.271Z,17.90
2018-07-11T01:38:25.295Z,21.90
2018-07-11T01:39:25.328Z,23.20
2018-07-11T01:40:25.340Z,22.40
2018-07-11T01:41:25.364Z,21.40
2018-07-11T01:42:25.378Z,22.20
2018-07-11T01:43:25.402Z,19.30
2018-07-11T01:44:25.430Z,19.70
2018-07-11T01:45:25.439Z,21.40
2018-07-11T01:46:25.467Z,20.40
2018-07-11T01:47:25.482Z,20.80
2018-07-11T01:48:25.513Z,21.20
2018-07-11T01:49:25.516Z,20.30
2018-07-11T01:50:25.545Z,18.40
2018-07-11T01:51:25.559Z,21.00
2018-07-11T01:52:25.589Z,19.80
2018-07-11T01:53:25.615Z,18.40
2018-07-11T01:54:25.620Z,18.10
2018-07-11T01:55:25.648Z,23.80
2018-07-11T01:56:25.666Z,19.80
2018-07-11T01:57:25.691Z,22.30
2018-07-11T01:58:25.719Z,17.40
2018-07-11T01:59:25.745Z,21.00
2018-07-11T02:00:25.753Z,18.70
2018-07-11T02:01:25.768Z,18.50
2018-07-11T02:02:25.799Z,19.40
2018-07-11T02:03:25.812Z,19.00
2018-07-11T02:04:25.833Z,16.60
2018-07-11T02:05:25.858Z,19.60
2018-07-11T02:06:25.871Z,19.40
2018-07-11T02:07:25.897Z,20.50
2018-07-11T02:08:25.914Z,19.70
2018-07-11T02:09:25.939Z,16.60
2018-07-11T02:10:25.965Z,15.70
2018-07-11T02:11:25.977Z,16.00
2018-07-11T02:12:26.008Z,16.00
2018-07-11T02:13:26.022Z,18.40
2018-07-11T02:14:26.045Z,17.10
2018-07-11T02:15:26.071Z,16.70
2018-07-11T02:16:26.081Z,18.20
2018-07-11T02:17:26.108Z,18.30
2018-07-11T02:18:26.125Z,17.30
2018-07-11T02:19:26.164Z,17.10
2018-07-11T02:20:26.165Z,18.50
2018-07-11T02:21:26.188Z,16.30
2018-07-11T02:22:26.211Z,17.70
2018-07-11T02:23:26.225Z,16.60
2018-07-11T02:24:26.254Z,16.10
2018-07-11T02:25:26.270Z,17.10
2018-07-11T02:26:26.293Z,16.10
2018-07-11T02:27:26.319Z,17.50
2018-07-11T02:28:26.335Z,18.70
2018-07-11T02:29:26.361Z,17.30
2018-07-11T02:30:26.376Z,21.50
2018-07-11T02:31:26.401Z,21.30
2018-07-11T02:32:26.409Z,19.10
2018-07-11T02:33:26.436Z,23.70
2018-07-11T02:34:26.465Z,21.30
2018-07-11T02:35:26.482Z,21.80
2018-07-11T02:36:26.501Z,21.40
2018-07-11T02:37:26.514Z,21.70
2018-07-11T02:38:26.542Z,19.50
2018-07-11T02:39:26.569Z,22.50
2018-07-11T02:40:26.587Z,25.60
2018-07-11T02:41:26.611Z,22.20
2018-07-11T02:42:26.618Z,20.50
2018-07-11T02:43:26.654Z,23.10
2018-07-11T02:44:26.674Z,20.20
2018-07-11T02:45:26.689Z,21.70
2018-07-11T02:46:26.718Z,21.10
2018-07-11T02:47:26.729Z,21.80
2018-07-11T02:48:26.751Z,21.40
2018-07-11T02:49:26.777Z,23.80
2018-07-11T02:50:26.796Z,20.20
2018-07-11T02:51:26.823Z,17.90
2018-07-11T02:52:26.829Z,23.40
2018-07-11T02:53:26.856Z,22.50
2018-07-11T02:54:26.868Z,19.80
2018-07-11T02:55:26.894Z,21.60
2018-07-11T02:56:26.924Z,24.50
2018-07-11T02:57:26.936Z,21.30
2018-07-11T02:58:26.961Z,24.20
2018-07-11T02:59:26.974Z,22.60
2018-07-11T03:00:27.005Z,21.60
2018-07-11T03:01:27.019Z,21.50
2018-07-11T03:02:27.041Z,21.80
2018-07-11T03:03:27.068Z,20.10
2018-07-11T03:04:27.077Z,19.70
2018-07-11T03:05:27.107Z,18.50
2018-07-11T03:06:27.121Z,26.10
2018-07-11T03:07:27.146Z,21.00
2018-07-11T03:08:27.168Z,19.80
2018-07-11T03:09:27.182Z,22.90
2018-07-11T03:10:27.210Z,21.40
2018-07-11T03:11:27.223Z,20.00
2018-07-11T03:12:27.256Z,22.80
2018-07-11T03:13:27.268Z,19.80
2018-07-11T03:14:27.289Z,18.70
2018-07-11T03:15:27.313Z,23.00
2018-07-11T03:16:27.330Z,25.30
2018-07-11T03:17:27.355Z,23.70
2018-07-11T03:18:27.372Z,25.70
2018-07-11T03:19:27.402Z,24.40
2018-07-11T03:20:27.407Z,23.80
2018-07-11T03:21:27.432Z,27.00
2018-07-11T03:22:27.461Z,23.00
2018-07-11T03:23:27.473Z,24.00
2018-07-11T03:24:27.502Z,26.30
2018-07-11T03:25:27.515Z,25.10
2018-07-11T03:26:27.540Z,21.90
2018-07-11T03:27:27.555Z,25.10
2018-07-11T03:28:27.575Z,19.90
2018-07-11T03:29:27.601Z,21.60
2018-07-11T03:30:27.620Z,19.80
2018-07-11T03:31:27.647Z,20.40
2018-07-11T03:32:27.736Z,24.20
2018-07-11T03:33:27.684Z,22.10
2018-07-11T03:34:27.694Z,23.30
2018-07-11T03:35:27.720Z,22.50
2018-07-11T03:36:27.749Z,24.10
2018-07-11T03:37:27.764Z,20.60
2018-07-11T03:38:27.786Z,23.20
2018-07-11T03:39:27.798Z,19.90
2018-07-11T03:40:27.828Z,23.70
2018-07-11T03:41:27.842Z,22.00
2018-07-11T03:42:27.870Z,24.20
2018-07-11T03:43:27.897Z,22.70
2018-07-11T03:44:27.904Z,24.80
2018-07-11T03:45:27.945Z,24.60
2018-07-11T03:46:27.950Z,24.20
2018-07-11T03:47:27.974Z,22.30
2018-07-11T03:48:27.982Z,24.00
2018-07-11T03:49:28.009Z,21.80
2018-07-11T03:50:28.036Z,22.10
2018-07-11T03:51:28.050Z,23.50
2018-07-11T03:52:28.080Z,22.60
2018-07-11T03:53:28.096Z,21.60
2018-07-11T03:54:28.114Z,20.00
2018-07-11T03:55:28.128Z,21.80
2018-07-11T03:56:28.160Z,21.60
2018-07-11T03:57:28.189Z,22.70
2018-07-11T03:58:28.195Z,21.20
2018-07-11T03:59:28.238Z,21.60
2018-07-11T04:00:28.231Z,23.80
2018-07-11T04:01:28.259Z,24.20
2018-07-11T04:02:28.326Z,23.80
2018-07-11T04:03:28.303Z,24.70
2018-07-11T04:04:28.325Z,24.70
2018-07-11T04:05:28.339Z,21.60
2018-07-11T04:06:28.363Z,22.80
2018-07-11T04:07:28.377Z,24.70
2018-07-11T04:08:28.405Z,24.60
2018-07-11T04:09:28.421Z,24.50
2018-07-11T04:10:28.441Z,24.40
2018-07-11T04:11:28.467Z,22.60
2018-07-11T04:12:28.484Z,22.80
2018-07-11T04:13:28.527Z,25.30
2018-07-11T04:14:28.526Z,23.90
2018-07-11T04:15:28.553Z,21.10
2018-07-11T04:16:28.562Z,22.90
2018-07-11T04:17:28.588Z,18.80
2018-07-11T04:18:28.615Z,20.20
2018-07-11T04:19:28.630Z,21.00
2018-07-11T04:20:28.651Z,23.40
2018-07-11T04:21:28.664Z,24.80
2018-07-11T04:22:28.692Z,22.70
2018-07-11T04:23:28.706Z,20.30
2018-07-11T04:24:28.737Z,21.10
2018-07-11T04:25:28.763Z,21.80
2018-07-11T04:26:28.769Z,22.50
2018-07-11T04:27:28.808Z,23.70
2018-07-11T04:28:28.815Z,21.40
2018-07-11T04:29:28.860Z,21.90
2018-07-11T04:30:28.855Z,22.60
2018-07-11T04:31:28.884Z,20.20
2018-07-11T04:32:28.901Z,22.90
2018-07-11T04:33:28.982Z,22.90
2018-07-11T04:34:28.986Z,20.70
2018-07-11T04:35:28.957Z,23.20
2018-07-11T04:36:28.978Z,22.40
2018-07-11T04:37:29.007Z,22.10
2018-07-11T04:38:29.021Z,20.70
2018-07-11T04:39:29.048Z,22.20
2018-07-11T04:40:29.070Z,24.20
2018-07-11T04:41:29.104Z,21.90
2018-07-11T04:42:29.142Z,21.40
2018-07-11T04:43:29.126Z,22.90
2018-07-11T04:44:29.189Z,22.70
2018-07-11T04:45:29.169Z,23.70
2018-07-11T04:46:29.193Z,21.20
2018-07-11T04:47:29.221Z,22.00
2018-07-11T04:48:29.230Z,19.00
2018-07-11T04:49:29.256Z,22.10
2018-07-11T04:50:29.275Z,20.40
2018-07-11T04:51:29.300Z,18.90
2018-07-11T04:52:29.322Z,20.00
2018-07-11T04:53:29.335Z,19.10
2018-07-11T04:54:29.359Z,19.90
2018-07-11T04:55:29.385Z,18.50
2018-07-11T04:56:29.403Z,19.70
2018-07-11T04:57:29.429Z,18.60
2018-07-11T04:58:29.438Z,19.60
2018-07-11T04:59:29.464Z,19.00
2018-07-11T05:00:29.495Z,20.10
2018-07-11T05:01:29.509Z,19.50
2018-07-11T05:02:29.537Z,19.00
2018-07-11T05:03:29.564Z,18.90
2018-07-11T05:04:29.571Z,18.30
2018-07-11T05:05:29.598Z,16.90
2018-07-11T05:06:29.625Z,14.00
2018-07-11T05:07:29.638Z,16.20
2018-07-11T05:08:29.660Z,15.20
2018-07-11T05:09:29.686Z,13.10
2018-07-11T05:10:29.705Z,14.80
2018-07-11T05:11:29.728Z,13.70
2018-07-11T05:12:29.759Z,13.80
2018-07-11T05:13:29.771Z,12.50
2018-07-11T05:14:29.793Z,12.80
2018-07-11T05:15:29.819Z,14.00
2018-07-11T05:16:29.838Z,11.60
2018-07-11T05:17:29.864Z,12.30
2018-07-11T05:18:29.887Z,12.20
2018-07-11T05:19:29.913Z,13.40
2018-07-11T05:20:29.922Z,13.90
2018-07-11T05:21:29.949Z,14.10
2018-07-11T05:22:29.968Z,14.90
2018-07-11T05:23:29.999Z,15.10
2018-07-11T05:24:30.017Z,14.50
2018-07-11T05:25:30.029Z,12.30
2018-07-11T05:26:30.066Z,13.60
2018-07-11T05:27:30.079Z,12.00
2018-07-11T05:28:30.099Z,13.90
2018-07-11T05:29:30.124Z,14.20
2018-07-11T05:30:30.146Z,13.40
2018-07-11T05:31:30.173Z,11.90
2018-07-11T05:32:30.191Z,11.30
2018-07-11T05:33:30.216Z,12.10
2018-07-11T05:34:30.239Z,12.40
2018-07-11T05:35:30.265Z,11.60
2018-07-11T05:36:30.277Z,13.20
2018-07-11T05:37:30.302Z,10.80
2018-07-11T05:38:30.334Z,10.80
2018-07-11T05:39:30.347Z,11.40
2018-07-11T05:40:30.369Z,11.70
2018-07-11T05:41:30.398Z,11.30
2018-07-11T05:42:30.468Z,11.60
2018-07-11T05:43:30.433Z,11.50
2018-07-11T05:44:30.463Z,10.70
2018-07-11T05:45:30.491Z,12.10
2018-07-11T05:46:30.510Z,13.00
2018-07-11T05:47:30.523Z,13.50
2018-07-11T05:48:30.557Z,10.20
2018-07-11T05:49:30.592Z,12.50
2018-07-11T05:50:30.607Z,12.50
2018-07-11T05:51:30.622Z,11.20
2018-07-11T05:52:30.644Z,13.20
2018-07-11T05:53:30.670Z,10.50
2018-07-11T05:54:30.697Z,12.90
2018-07-11T05:55:30.711Z,10.70
2018-07-11T05:56:30.733Z,10.50
2018-07-11T05:57:30.760Z,10.90
2018-07-11T05:58:30.786Z,12.70
2018-07-11T05:59:30.814Z,9.70
2018-07-11T06:00:30.831Z,9.50
2018-07-11T06:01:30.857Z,10.00
2018-07-11T06:02:30.887Z,7.70
2018-07-11T06:03:30.904Z,10.10
2018-07-11T06:04:30.921Z,8.10
2018-07-11T06:05:30.979Z,10.80
2018-07-11T06:06:30.973Z,10.30
2018-07-11T06:07:30.997Z,7.50
2018-07-11T06:08:31.019Z,11.60
2018-07-11T06:09:31.035Z,7.50
2018-07-11T06:10:31.067Z,9.00
2018-07-11T06:11:31.091Z,8.40
2018-07-11T06:12:31.113Z,10.20
2018-07-11T06:13:31.143Z,9.00
2018-07-11T06:14:31.163Z,13.30
2018-07-11T06:15:31.177Z,15.10
2018-07-11T06:16:31.207Z,10.10
2018-07-11T06:17:31.232Z,11.40
2018-07-11T06:18:31.254Z,38.80
2018-07-11T06:19:31.292Z,11.10
2018-07-11T06:20:31.303Z,9.40
2018-07-11T06:21:31.324Z,9.00
2018-07-11T06:22:31.352Z,10.20
2018-07-11T06:23:31.378Z,10.20
2018-07-11T06:24:31.400Z,7.10
2018-07-11T06:25:31.426Z,10.60
2018-07-11T06:26:31.454Z,8.20
2018-07-11T06:27:31.468Z,7.10
2018-07-11T06:28:31.493Z,9.50
2018-07-11T06:29:31.514Z,7.60
2018-07-11T06:30:31.549Z,8.90
2018-07-11T06:31:31.568Z,8.70
2018-07-11T06:32:31.592Z,6.40
2018-07-11T06:33:31.685Z,9.70
2018-07-11T06:34:31.634Z,7.90
2018-07-11T06:35:31.659Z,8.00
2018-07-11T06:36:31.689Z,7.80
2018-07-11T06:37:31.702Z,6.30
2018-07-11T06:38:31.729Z,5.70
2018-07-11T06:39:31.755Z,7.40
2018-07-11T06:40:31.778Z,6.30
2018-07-11T06:41:31.803Z,6.00
2018-07-11T06:42:31.843Z,5.90
2018-07-11T06:43:31.857Z,5.50
2018-07-11T06:44:31.933Z,6.60
2018-07-11T06:45:31.906Z,5.60
2018-07-11T06:46:31.933Z,7.30
2018-07-11T06:47:31.959Z,4.80
2018-07-11T06:48:31.978Z,5.20
2018-07-11T06:49:32.005Z,4.80
2018-07-11T06:50:32.026Z,5.10
2018-07-11T06:51:32.051Z,5.30
2018-07-11T06:52:32.082Z,7.00
2018-07-11T06:53:32.107Z,5.10
2018-07-11T06:54:32.131Z,4.60
2018-07-11T06:55:32.157Z,8.30
2018-07-11T06:56:32.178Z,6.90
2018-07-11T06:57:32.264Z,6.30
2018-07-11T06:58:32.237Z,5.30
2018-07-11T06:59:32.262Z,6.10
2018-07-11T07:00:32.285Z,5.60
2018-07-11T07:01:32.314Z,4.80
2018-07-11T07:02:32.335Z,5.80
2018-07-11T07:03:32.401Z,5.70
2018-07-11T07:04:32.393Z,4.90
2018-07-11T07:05:32.417Z,4.70
2018-07-11T07:06:32.438Z,7.20
2018-07-11T07:07:32.465Z,5.50
2018-07-11T07:08:32.494Z,5.10
2018-07-11T07:09:32.521Z,5.50
2018-07-11T07:10:32.550Z,4.40
2018-07-11T07:11:32.575Z,4.90
2018-07-11T07:12:32.597Z,2.80
2018-07-11T07:13:32.622Z,2.60
2018-07-11T07:14:32.663Z,3.10
2018-07-11T07:15:32.689Z,3.60
2018-07-11T07:16:32.772Z,3.40
2018-07-11T07:17:32.736Z,2.60
2018-07-11T07:18:32.764Z,2.90
2018-07-11T07:19:32.803Z,3.50
2018-07-11T07:20:32.821Z,3.60
2018-07-11T07:21:32.860Z,2.80
2018-07-11T07:22:32.941Z,1.80
2018-07-11T07:23:32.907Z,2.10
2018-07-11T07:24:32.937Z,3.00
2018-07-11T07:25:32.964Z,2.90
2018-07-11T07:26:33.000Z,2.70
2018-07-11T07:27:33.033Z,2.60
2018-07-11T07:28:33.047Z,3.20
2018-07-11T07:29:33.073Z,2.10
2018-07-11T07:30:33.106Z,2.20
2018-07-11T07:31:33.144Z,1.80
2018-07-11T07:32:33.167Z,1.90
2018-07-11T07:33:33.192Z,2.80
2018-07-11T07:34:33.216Z,2.00
2018-07-11T07:35:33.254Z,2.90
2018-07-11T07:36:33.297Z,2.30
2018-07-11T07:37:33.311Z,3.40
2018-07-11T07:38:33.336Z,1.90
2018-07-11T07:39:33.376Z,3.00
2018-07-11T07:40:33.397Z,2.30
2018-07-11T07:41:33.423Z,2.40
2018-07-11T07:42:33.452Z,2.20
2018-07-11T07:43:33.489Z,2.20
2018-07-11T07:44:33.518Z,2.00
2018-07-11T07:45:33.546Z,4.50
2018-07-11T07:46:33.578Z,2.40
2018-07-11T07:47:33.604Z,2.70
2018-07-11T07:48:33.635Z,2.40
2018-07-11T07:49:33.660Z,3.70
2018-07-11T07:50:33.702Z,2.50
2018-07-11T07:51:33.726Z,2.30
2018-07-11T07:52:33.749Z,2.60
2018-07-11T07:53:33.787Z,4.00
2018-07-11T07:54:33.817Z,2.20
2018-07-11T07:55:33.844Z,3.00
2018-07-11T07:56:33.865Z,2.40
2018-07-11T07:57:33.904Z,2.70
2018-07-11T07:58:33.939Z,3.10
2018-07-11T07:59:33.952Z,2.30
2018-07-11T08:00:34.025Z,3.60
2018-07-11T08:01:34.022Z,2.10
2018-07-11T08:02:34.045Z,2.50
2018-07-11T08:03:34.070Z,2.20
2018-07-11T08:04:34.113Z,2.40
2018-07-11T08:05:34.157Z,2.40
2018-07-11T08:06:34.176Z,2.40
2018-07-11T08:07:34.203Z,2.60
2018-07-11T08:08:34.226Z,1.90
2018-07-11T08:09:34.262Z,2.20
2018-07-11T08:10:34.292Z,1.80
2018-07-11T08:11:34.331Z,1.90
2018-07-11T08:12:34.411Z,2.40
2018-07-11T08:13:34.378Z,1.80
2018-07-11T08:14:34.419Z,1.70
2018-07-11T08:15:34.445Z,1.70
2018-07-11T08:16:34.490Z,2.60
2018-07-11T08:17:34.514Z,1.90
2018-07-11T08:18:34.545Z,1.70
2018-07-11T08:19:34.585Z,2.40
2018-07-11T08:20:34.615Z,2.10
2018-07-11T08:21:34.679Z,1.70
2018-07-11T08:22:34.682Z,2.40
2018-07-11T08:23:34.719Z,1.60
2018-07-11T08:24:34.767Z,1.40
2018-07-11T08:25:34.779Z,2.10
2018-07-11T08:26:34.822Z,1.20
2018-07-11T08:27:34.852Z,1.40
2018-07-11T08:28:34.882Z,1.50
2018-07-11T08:29:34.921Z,1.50
2018-07-11T08:30:34.946Z,1.60
2018-07-11T08:31:34.984Z,1.20
2018-07-11T08:32:35.014Z,1.60
2018-07-11T08:33:35.053Z,3.00
2018-07-11T08:34:35.104Z,2.00
2018-07-11T08:35:35.115Z,1.90
2018-07-11T08:36:35.145Z,1.60
2018-07-11T08:37:35.183Z,1.80
2018-07-11T08:38:35.209Z,2.90
2018-07-11T08:39:35.294Z,3.60
2018-07-11T08:40:35.270Z,2.70
2018-07-11T08:41:35.305Z,3.30
2018-07-11T08:42:35.338Z,3.40
2018-07-11T08:43:35.365Z,2.00
2018-07-11T08:44:35.398Z,2.50
2018-07-11T08:45:35.427Z,2.10
2018-07-11T08:46:35.464Z,1.70
2018-07-11T08:47:35.530Z,1.80
2018-07-11T08:48:35.517Z,2.30
2018-07-11T08:49:35.555Z,1.70
2018-07-11T08:50:35.578Z,2.50
2018-07-11T08:51:35.604Z,2.00
2018-07-11T08:52:35.634Z,2.00
2018-07-11T08:53:35.673Z,2.10
2018-07-11T08:54:35.698Z,2.00
2018-07-11T08:55:35.728Z,2.90
2018-07-11T08:56:35.746Z,2.40
2018-07-11T08:57:35.785Z,1.90
2018-07-11T08:58:35.814Z,1.70
2018-07-11T08:59:35.839Z,1.70
2018-07-11T09:00:35.875Z,2.00
2018-07-11T09:01:35.900Z,1.70
2018-07-11T09:02:35.972Z,2.40
2018-07-11T09:03:35.966Z,1.70
2018-07-11T09:04:35.998Z,1.50
2018-07-11T09:05:36.039Z,1.90
2018-07-11T09:06:36.057Z,5.30
2018-07-11T09:07:36.094Z,1.70
2018-07-11T09:08:36.124Z,1.80
2018-07-11T09:09:36.164Z,1.50
2018-07-11T09:10:36.281Z,1.80
2018-07-11T09:11:36.229Z,1.50
2018-07-11T09:12:36.263Z,1.60
2018-07-11T09:13:36.288Z,1.60
2018-07-11T09:14:36.331Z,1.90
2018-07-11T09:15:36.372Z,3.00
2018-07-11T09:16:36.417Z,1.60
2018-07-11T09:17:36.432Z,1.50
2018-07-11T09:18:36.467Z,3.10
2018-07-11T09:19:36.506Z,1.60
2018-07-11T09:20:36.535Z,2.20
2018-07-11T09:21:36.573Z,5.90
2018-07-11T09:22:36.610Z,3.00
2018-07-11T09:23:36.636Z,2.00
2018-07-11T09:24:36.679Z,2.70
2018-07-11T09:25:36.706Z,2.30
2018-07-11T09:26:36.741Z,3.00
2018-07-11T09:27:36.781Z,2.40
2018-07-11T09:28:36.800Z,2.50
2018-07-11T09:29:36.840Z,2.40
2018-07-11T09:30:36.930Z,2.80
2018-07-11T09:31:36.908Z,3.60
2018-07-11T09:32:36.945Z,2.30
2018-07-11T09:33:36.968Z,4.70
2018-07-11T09:34:37.013Z,3.80
2018-07-11T09:35:37.047Z,2.30
2018-07-11T09:36:37.077Z,2.60
2018-07-11T09:37:37.129Z,2.30
2018-07-11T09:38:37.137Z,2.50
2018-07-11T09:39:37.173Z,3.10
2018-07-11T09:40:37.205Z,1.90
2018-07-11T09:41:37.244Z,3.00
2018-07-11T09:42:37.272Z,2.40
2018-07-11T09:43:37.309Z,2.30
2018-07-11T09:44:37.335Z,2.30
2018-07-11T09:45:37.430Z,2.40
2018-07-11T09:46:37.408Z,2.50
2018-07-11T09:47:37.434Z,3.20
2018-07-11T09:48:37.477Z,5.30
2018-07-11T09:49:37.503Z,2.70
2018-07-11T09:50:37.553Z,2.00
2018-07-11T09:51:37.564Z,3.50
2018-07-11T09:52:37.600Z,2.50
2018-07-11T09:53:37.626Z,2.30
2018-07-11T09:54:37.670Z,2.20
2018-07-11T09:55:37.695Z,2.50
2018-07-11T09:56:37.718Z,2.30
2018-07-11T09:57:37.767Z,2.30
2018-07-11T09:58:37.780Z,2.30
2018-07-11T09:59:37.820Z,4.20
2018-07-11T10:00:37.852Z,3.70
2018-07-11T10:01:37.888Z,2.40
2018-07-11T10:02:37.910Z,3.70
2018-07-11T10:03:37.935Z,3.90
2018-07-11T10:04:37.980Z,3.00
2018-07-11T10:05:38.003Z,3.40
2018-07-11T10:06:38.045Z,4.30
2018-07-11T10:07:38.071Z,2.90
2018-07-11T10:08:38.103Z,2.60
2018-07-11T10:09:38.129Z,2.90
2018-07-11T10:10:38.163Z,4.80
2018-07-11T10:11:38.197Z,3.50
2018-07-11T10:12:38.334Z,3.50
2018-07-11T10:13:38.271Z,2.50
2018-07-11T10:14:38.286Z,4.10
2018-07-11T10:15:38.326Z,3.70
2018-07-11T10:16:38.354Z,3.00
2018-07-11T10:17:38.396Z,5.20
2018-07-11T10:18:38.413Z,3.90
2018-07-11T10:19:38.444Z,3.30
2018-07-11T10:20:38.483Z,2.40
2018-07-11T10:21:38.582Z,2.90
2018-07-11T10:22:38.545Z,3.10
2018-07-11T10:23:38.571Z,2.70
2018-07-11T10:24:38.593Z,2.30
2018-07-11T10:25:38.631Z,3.40
2018-07-11T10:26:38.665Z,3.70
2018-07-11T10:27:38.703Z,2.60
2018-07-11T10:28:38.723Z,2.60
2018-07-11T10:29:38.751Z,3.50
2018-07-11T10:30:38.787Z,3.60
2018-07-11T10:31:38.813Z,7.00
2018-07-11T10:32:38.843Z,2.50
2018-07-11T10:33:38.905Z,4.10
2018-07-11T10:34:38.915Z,7.10
2018-07-11T10:35:38.938Z,4.40
2018-07-11T10:36:38.959Z,2.90
2018-07-11T10:37:38.997Z,2.70
2018-07-11T10:38:39.025Z,3.60
2018-07-11T10:39:39.065Z,2.70
2018-07-11T10:40:39.084Z,3.20
2018-07-11T10:41:39.112Z,4.20
2018-07-11T10:42:39.139Z,2.70
2018-07-11T10:43:39.179Z,3.60
2018-07-11T10:44:39.199Z,5.40
2018-07-11T10:45:39.226Z,3.30
2018-07-11T10:46:39.265Z,4.10
2018-07-11T10:47:39.294Z,6.00
2018-07-11T10:48:39.322Z,3.00
2018-07-11T10:49:39.361Z,2.80
2018-07-11T10:50:39.440Z,5.20
2018-07-11T10:51:39.418Z,9.90
2018-07-11T10:52:39.450Z,4.10
2018-07-11T10:53:39.475Z,2.50
2018-07-11T10:54:39.516Z,3.50
2018-07-11T10:55:39.542Z,2.90
2018-07-11T10:56:39.563Z,4.50
2018-07-11T10:57:39.684Z,3.40
2018-07-11T10:58:39.629Z,4.00
2018-07-11T10:59:39.669Z,3.50
2018-07-11T11:00:39.745Z,3.20
2018-07-11T11:01:39.728Z,3.00
2018-07-11T11:02:39.803Z,3.20
2018-07-11T11:03:39.796Z,2.30
2018-07-11T11:04:39.828Z,2.30
2018-07-11T11:05:39.866Z,5.40
2018-07-11T11:06:39.901Z,3.50
2018-07-11T11:07:39.937Z,5.10
2018-07-11T11:08:39.967Z,5.40
2018-07-11T11:09:40.009Z,3.40
2018-07-11T11:10:40.042Z,2.50
2018-07-11T11:11:40.080Z,2.30
2018-07-11T11:12:40.103Z,2.70
2018-07-11T11:13:40.140Z,3.70
2018-07-11T11:14:40.224Z,2.60
2018-07-11T11:15:40.223Z,3.50
2018-07-11T11:16:40.246Z,3.00
2018-07-11T11:17:40.285Z,4.10
2018-07-11T11:18:40.320Z,2.20
2018-07-11T11:19:40.360Z,2.60
2018-07-11T11:20:40.414Z,2.30
2018-07-11T11:21:40.491Z,2.80
2018-07-11T11:22:40.828Z,2.40
2018-07-11T11:23:40.715Z,3.50
2018-07-11T11:24:40.554Z,2.90
2018-07-11T11:25:40.623Z,4.60
2018-07-11T11:26:40.988Z,2.60
2018-07-11T11:27:40.684Z,2.20
2018-07-11T11:28:40.720Z,3.10
2018-07-11T11:29:40.771Z,3.90
2018-07-11T11:30:40.815Z,2.20
2018-07-11T11:31:40.839Z,1.90
2018-07-11T11:32:40.872Z,2.00
2018-07-11T11:33:40.922Z,2.10
2018-07-11T11:34:40.963Z,2.00
2018-07-11T11:35:41.067Z,4.00
2018-07-11T11:36:41.043Z,2.60
2018-07-11T11:37:41.083Z,2.90
2018-07-11T11:38:41.129Z,2.70
2018-07-11T11:39:41.167Z,2.30
2018-07-11T11:40:41.211Z,2.30
2018-07-11T11:41:41.366Z,5.40
2018-07-11T11:42:41.350Z,2.70
2018-07-11T11:43:41.324Z,2.80
2018-07-11T11:44:41.366Z,3.80
2018-07-11T11:45:41.397Z,2.60
2018-07-11T11:46:41.441Z,2.30
2018-07-11T11:47:41.479Z,2.70
2018-07-11T11:48:41.501Z,2.60
2018-07-11T11:49:41.541Z,2.10
2018-07-11T11:50:41.575Z,3.20
2018-07-11T11:51:41.614Z,2.70
2018-07-11T11:52:41.660Z,4.10
2018-07-11T11:53:41.699Z,3.50
2018-07-11T11:54:41.724Z,5.30
2018-07-11T11:55:41.759Z,2.50
2018-07-11T11:56:41.794Z,2.10
2018-07-11T11:57:41.820Z,3.00
2018-07-11T11:58:41.863Z,3.90
2018-07-11T11:59:41.899Z,3.50
2018-07-11T12:00:41.931Z,3.10
2018-07-11T12:01:41.971Z,2.10
2018-07-11T12:02:42.000Z,3.40
2018-07-11T12:03:42.028Z,3.90
2018-07-11T12:04:42.068Z,2.70
2018-07-11T12:05:42.107Z,2.80
2018-07-11T12:06:42.147Z,2.70
2018-07-11T12:07:42.179Z,2.50
2018-07-11T12:08:42.208Z,4.10
2018-07-11T12:09:42.235Z,2.70
2018-07-11T12:10:42.276Z,3.30
2018-07-11T12:11:42.315Z,2.50
2018-07-11T12:12:42.336Z,2.80
2018-07-11T12:13:42.375Z,3.10
2018-07-11T12:14:42.416Z,2.70
2018-07-11T12:15:42.438Z,3.60
2018-07-11T12:16:42.479Z,3.90
2018-07-11T12:17:42.506Z,3.70
2018-07-11T12:18:42.543Z,4.00
2018-07-11T12:19:42.569Z,2.30
2018-07-11T12:20:42.611Z,2.30
2018-07-11T12:21:42.636Z,2.20
2018-07-11T12:22:42.673Z,2.30
2018-07-11T12:23:42.707Z,2.80
2018-07-11T12:24:42.723Z,5.10
2018-07-11T12:25:42.761Z,3.30
2018-07-11T12:26:42.793Z,3.20
2018-07-11T12:27:42.828Z,4.20
2018-07-11T12:28:42.852Z,2.40
2018-07-11T12:29:42.875Z,2.40
2018-07-11T12:30:42.915Z,4.80
2018-07-11T12:31:42.941Z,4.20
2018-07-11T12:32:42.972Z,2.60
2018-07-11T12:33:43.011Z,2.80
2018-07-11T12:34:43.030Z,2.30
2018-07-11T12:35:43.057Z,2.20
2018-07-11T12:36:43.099Z,2.30
2018-07-11T12:37:43.124Z,2.50
2018-07-11T12:38:43.153Z,2.60
2018-07-11T12:39:43.192Z,3.90
2018-07-11T12:40:43.213Z,4.00
2018-07-11T12:41:43.252Z,2.30
2018-07-11T12:42:43.281Z,2.40
2018-07-11T12:43:43.308Z,3.10
2018-07-11T12:44:43.342Z,3.10
2018-07-11T12:45:43.368Z,2.80
2018-07-11T12:46:43.405Z,5.10
2018-07-11T12:47:43.431Z,3.30
2018-07-11T12:48:43.463Z,2.40
2018-07-11T12:49:43.503Z,3.90
2018-07-11T12:50:43.526Z,3.90
2018-07-11T12:51:43.561Z,2.40
2018-07-11T12:52:43.591Z,3.70
2018-07-11T12:53:43.629Z,2.30
2018-07-11T12:54:43.657Z,3.80
2018-07-11T12:55:43.692Z,3.90
2018-07-11T12:56:43.713Z,4.10
2018-07-11T12:57:43.754Z,3.30
2018-07-11T12:58:43.786Z,6.80
2018-07-11T12:59:43.822Z,2.20
2018-07-11T13:00:43.845Z,1.80
2018-07-11T13:01:43.886Z,2.70
2018-07-11T13:02:43.919Z,1.90
2018-07-11T13:03:43.958Z,2.40
2018-07-11T13:04:44.000Z,3.40
2018-07-11T13:05:44.027Z,2.60
2018-07-11T13:06:44.064Z,2.70